sensor_id;sensor_type;location;lat;lon;timestamp;temperature;humidity
35607;DHT22;21729;58.392;15.656;2022-10-03T00:02:37;10.40;1.00
35607;DHT22;21729;58.392;15.656;2022-10-03T00:05:18;10.40;1.00
35607;DHT22;21729;58.392;15.656;2022-10-03T00:08:13;10.40;1.00
35607;DHT22;21729;58.392;15.656;2022-10-03T00:10:56;10.40;1.00
35607;DHT22;21729;58.392;15.656;2022-10-03T00:13:35;10.40;1.00
35607;DHT22;21729;58.392;15.656;2022-10-03T00:16:11;10.40;1.00
35607;DHT22;21729;58.392;15.656;2022-10-03T00:18:49;10.40;1.00
35607;DHT22;21729;58.392;15.656;2022-10-03T00:21:38;10.40;1.00
35607;DHT22;21729;58.392;15.656;2022-10-03T00:24:19;10.40;1.00
35607;DHT22;21729;58.392;15.656;2022-10-03T00:26:53;10.40;1.00
35607;DHT22;21729;58.392;15.656;2022-10-03T00:29:52;10.40;1.00
35607;DHT22;21729;58.392;15.656;2022-10-03T00:32:32;10.30;1.00
35607;DHT22;21729;58.392;15.656;2022-10-03T00:35:18;10.40;1.00
35607;DHT22;21729;58.392;15.656;2022-10-03T00:38:08;10.40;1.00
35607;DHT22;21729;58.392;15.656;2022-10-03T00:44:34;10.40;1.00
35607;DHT22;21729;58.392;15.656;2022-10-03T00:47:43;10.40;1.00
35607;DHT22;21729;58.392;15.656;2022-10-03T00:53:36;10.40;1.00
35607;DHT22;21729;58.392;15.656;2022-10-03T00:56:21;10.40;1.00
35607;DHT22;21729;58.392;15.656;2022-10-03T00:59:03;10.40;1.00
35607;DHT22;21729;58.392;15.656;2022-10-03T01:01:37;10.40;1.00
35607;DHT22;21729;58.392;15.656;2022-10-03T01:04:29;10.40;1.00
35607;DHT22;21729;58.392;15.656;2022-10-03T01:07:07;10.40;1.00
35607;DHT22;21729;58.392;15.656;2022-10-03T01:09:50;10.40;1.00
35607;DHT22;21729;58.392;15.656;2022-10-03T01:12:55;10.40;1.00
35607;DHT22;21729;58.392;15.656;2022-10-03T01:15:30;10.30;1.00
35607;DHT22;21729;58.392;15.656;2022-10-03T01:18:21;10.30;1.00
35607;DHT22;21729;58.392;15.656;2022-10-03T01:21:01;10.30;1.00
35607;DHT22;21729;58.392;15.656;2022-10-03T01:27:06;10.40;1.00
35607;DHT22;21729;58.392;15.656;2022-10-03T01:29:42;10.40;1.00
35607;DHT22;21729;58.392;15.656;2022-10-03T01:32:32;10.40;1.00
35607;DHT22;21729;58.392;15.656;2022-10-03T01:35:10;10.40;1.00
35607;DHT22;21729;58.392;15.656;2022-10-03T01:37:47;10.40;1.00
35607;DHT22;21729;58.392;15.656;2022-10-03T01:40:24;10.40;1.00
35607;DHT22;21729;58.392;15.656;2022-10-03T01:43:09;10.40;1.00
35607;DHT22;21729;58.392;15.656;2022-10-03T01:45:54;10.40;1.00
35607;DHT22;21729;58.392;15.656;2022-10-03T01:48:30;10.40;1.00
35607;DHT22;21729;58.392;15.656;2022-10-03T01:51:04;10.40;1.00
35607;DHT22;21729;58.392;15.656;2022-10-03T01:53:44;10.40;1.00
35607;DHT22;21729;58.392;15.656;2022-10-03T01:56:19;10.40;1.00
35607;DHT22;21729;58.392;15.656;2022-10-03T01:58:52;10.40;1.00
35607;DHT22;21729;58.392;15.656;2022-10-03T02:01:30;10.40;1.00
35607;DHT22;21729;58.392;15.656;2022-10-03T02:04:05;10.40;1.00
35607;DHT22;21729;58.392;15.656;2022-10-03T02:06:44;10.30;1.00
35607;DHT22;21729;58.392;15.656;2022-10-03T02:09:24;10.30;1.00
35607;DHT22;21729;58.392;15.656;2022-10-03T02:12:04;10.30;1.00
35607;DHT22;21729;58.392;15.656;2022-10-03T02:14:43;10.30;1.00
35607;DHT22;21729;58.392;15.656;2022-10-03T02:17:22;10.30;1.00
35607;DHT22;21729;58.392;15.656;2022-10-03T02:19:59;10.20;1.00
35607;DHT22;21729;58.392;15.656;2022-10-03T02:22:30;10.20;1.00
35607;DHT22;21729;58.392;15.656;2022-10-03T02:25:20;10.20;1.00
35607;DHT22;21729;58.392;15.656;2022-10-03T02:34:31;10.20;1.00
35607;DHT22;21729;58.392;15.656;2022-10-03T02:40:43;10.20;1.00
35607;DHT22;21729;58.392;15.656;2022-10-03T02:43:40;10.20;1.00
35607;DHT22;21729;58.392;15.656;2022-10-03T02:46:39;10.20;1.00
35607;DHT22;21729;58.392;15.656;2022-10-03T02:49:42;10.20;1.00
35607;DHT22;21729;58.392;15.656;2022-10-03T02:52:35;10.20;1.00
35607;DHT22;21729;58.392;15.656;2022-10-03T02:58:27;10.10;1.00
35607;DHT22;21729;58.392;15.656;2022-10-03T03:01:26;10.10;1.00
35607;DHT22;21729;58.392;15.656;2022-10-03T03:04:17;10.10;1.00
35607;DHT22;21729;58.392;15.656;2022-10-03T03:07:01;10.10;1.00
35607;DHT22;21729;58.392;15.656;2022-10-03T03:10:05;10.10;1.00
35607;DHT22;21729;58.392;15.656;2022-10-03T03:12:57;10.10;1.00
35607;DHT22;21729;58.392;15.656;2022-10-03T03:18:38;10.00;1.00
35607;DHT22;21729;58.392;15.656;2022-10-03T03:21:25;10.00;1.00
35607;DHT22;21729;58.392;15.656;2022-10-03T03:24:47;10.00;1.00
35607;DHT22;21729;58.392;15.656;2022-10-03T03:27:31;10.00;1.00
35607;DHT22;21729;58.392;15.656;2022-10-03T03:30:04;10.00;1.00
35607;DHT22;21729;58.392;15.656;2022-10-03T03:32:43;9.90;1.00
35607;DHT22;21729;58.392;15.656;2022-10-03T03:35:23;9.90;1.00
35607;DHT22;21729;58.392;15.656;2022-10-03T03:38:00;9.90;1.00
35607;DHT22;21729;58.392;15.656;2022-10-03T03:40:38;9.90;1.00
35607;DHT22;21729;58.392;15.656;2022-10-03T03:46:23;9.80;1.00
35607;DHT22;21729;58.392;15.656;2022-10-03T03:49:26;9.80;1.00
35607;DHT22;21729;58.392;15.656;2022-10-03T03:52:06;9.70;1.00
35607;DHT22;21729;58.392;15.656;2022-10-03T03:54:53;9.60;1.00
35607;DHT22;21729;58.392;15.656;2022-10-03T03:57:44;9.60;1.00
35607;DHT22;21729;58.392;15.656;2022-10-03T04:00:18;9.50;1.00
35607;DHT22;21729;58.392;15.656;2022-10-03T04:03:11;9.30;1.00
35607;DHT22;21729;58.392;15.656;2022-10-03T04:05:59;9.40;1.00
35607;DHT22;21729;58.392;15.656;2022-10-03T04:09:05;9.40;1.00
35607;DHT22;21729;58.392;15.656;2022-10-03T04:11:43;9.30;1.00
35607;DHT22;21729;58.392;15.656;2022-10-03T04:14:45;9.30;1.00
35607;DHT22;21729;58.392;15.656;2022-10-03T04:20:43;9.40;1.00
35607;DHT22;21729;58.392;15.656;2022-10-03T04:23:26;9.40;1.00
35607;DHT22;21729;58.392;15.656;2022-10-03T04:26:10;9.40;1.00
35607;DHT22;21729;58.392;15.656;2022-10-03T04:29:02;9.40;1.00
35607;DHT22;21729;58.392;15.656;2022-10-03T04:31:40;9.40;1.00
35607;DHT22;21729;58.392;15.656;2022-10-03T04:34:24;9.40;1.00
35607;DHT22;21729;58.392;15.656;2022-10-03T04:37:11;9.40;1.00
35607;DHT22;21729;58.392;15.656;2022-10-03T04:39:46;9.40;1.00
35607;DHT22;21729;58.392;15.656;2022-10-03T04:42:28;9.40;1.00
35607;DHT22;21729;58.392;15.656;2022-10-03T04:45:18;9.40;1.00
35607;DHT22;21729;58.392;15.656;2022-10-03T04:48:03;9.40;1.00
35607;DHT22;21729;58.392;15.656;2022-10-03T04:50:36;9.40;1.00
35607;DHT22;21729;58.392;15.656;2022-10-03T04:53:18;9.30;1.00
35607;DHT22;21729;58.392;15.656;2022-10-03T04:55:50;9.30;1.00
35607;DHT22;21729;58.392;15.656;2022-10-03T04:58:27;9.30;1.00
35607;DHT22;21729;58.392;15.656;2022-10-03T05:01:03;9.30;1.00
35607;DHT22;21729;58.392;15.656;2022-10-03T05:03:42;9.30;1.00
35607;DHT22;21729;58.392;15.656;2022-10-03T05:06:27;9.30;1.00
35607;DHT22;21729;58.392;15.656;2022-10-03T05:09:01;9.30;1.00
35607;DHT22;21729;58.392;15.656;2022-10-03T05:11:42;9.30;1.00
35607;DHT22;21729;58.392;15.656;2022-10-03T05:14:17;9.30;99.90
35607;DHT22;21729;58.392;15.656;2022-10-03T05:16:52;9.30;1.40
35607;DHT22;21729;58.392;15.656;2022-10-03T05:19:45;9.30;1.40
35607;DHT22;21729;58.392;15.656;2022-10-03T05:22:26;9.30;1.40
35607;DHT22;21729;58.392;15.656;2022-10-03T05:25:03;9.30;1.40
35607;DHT22;21729;58.392;15.656;2022-10-03T05:27:43;9.30;99.90
35607;DHT22;21729;58.392;15.656;2022-10-03T05:30:19;9.10;1.00
35607;DHT22;21729;58.392;15.656;2022-10-03T05:32:56;9.30;1.00
35607;DHT22;21729;58.392;15.656;2022-10-03T05:35:42;9.30;1.00
35607;DHT22;21729;58.392;15.656;2022-10-03T05:38:37;9.30;1.00
35607;DHT22;21729;58.392;15.656;2022-10-03T05:41:17;9.30;1.00
35607;DHT22;21729;58.392;15.656;2022-10-03T05:43:53;9.40;1.00
35607;DHT22;21729;58.392;15.656;2022-10-03T05:46:38;9.40;1.00
35607;DHT22;21729;58.392;15.656;2022-10-03T05:52:24;9.40;1.00
35607;DHT22;21729;58.392;15.656;2022-10-03T05:55:22;9.40;1.00
35607;DHT22;21729;58.392;15.656;2022-10-03T06:01:18;9.50;1.00
35607;DHT22;21729;58.392;15.656;2022-10-03T06:04:04;9.50;1.00
35607;DHT22;21729;58.392;15.656;2022-10-03T06:06:50;9.50;1.00
35607;DHT22;21729;58.392;15.656;2022-10-03T06:12:32;9.60;1.00
35607;DHT22;21729;58.392;15.656;2022-10-03T06:15:14;9.70;1.00
35607;DHT22;21729;58.392;15.656;2022-10-03T06:18:00;9.70;1.00
35607;DHT22;21729;58.392;15.656;2022-10-03T06:24:37;9.70;1.00
35607;DHT22;21729;58.392;15.656;2022-10-03T06:27:41;9.80;1.00
35607;DHT22;21729;58.392;15.656;2022-10-03T06:30:22;9.80;1.00
35607;DHT22;21729;58.392;15.656;2022-10-03T06:36:20;9.90;1.00
35607;DHT22;21729;58.392;15.656;2022-10-03T06:39:36;9.90;1.00
35607;DHT22;21729;58.392;15.656;2022-10-03T06:42:31;9.90;1.00
35607;DHT22;21729;58.392;15.656;2022-10-03T06:45:39;10.00;1.00
35607;DHT22;21729;58.392;15.656;2022-10-03T06:51:48;10.10;1.00
35607;DHT22;21729;58.392;15.656;2022-10-03T06:54:57;10.20;1.00
35607;DHT22;21729;58.392;15.656;2022-10-03T07:00:33;10.30;1.00
35607;DHT22;21729;58.392;15.656;2022-10-03T07:06:45;10.40;1.00
35607;DHT22;21729;58.392;15.656;2022-10-03T07:22:10;10.80;1.00
35607;DHT22;21729;58.392;15.656;2022-10-03T07:28:03;11.00;1.00
35607;DHT22;21729;58.392;15.656;2022-10-03T07:30:50;11.10;1.00
35607;DHT22;21729;58.392;15.656;2022-10-03T07:33:33;11.20;99.90
35607;DHT22;21729;58.392;15.656;2022-10-03T07:39:52;11.40;99.90
35607;DHT22;21729;58.392;15.656;2022-10-03T07:43:13;11.60;99.90
35607;DHT22;21729;58.392;15.656;2022-10-03T07:46:27;11.60;99.90
35607;DHT22;21729;58.392;15.656;2022-10-03T07:49:13;11.80;99.90
35607;DHT22;21729;58.392;15.656;2022-10-03T07:52:02;11.80;99.90
35607;DHT22;21729;58.392;15.656;2022-10-03T07:58:18;12.20;99.90
35607;DHT22;21729;58.392;15.656;2022-10-03T08:01:18;12.00;99.90
35607;DHT22;21729;58.392;15.656;2022-10-03T08:04:19;12.00;99.90
35607;DHT22;21729;58.392;15.656;2022-10-03T08:06:55;12.10;99.90
35607;DHT22;21729;58.392;15.656;2022-10-03T08:10:07;12.00;99.90
35607;DHT22;21729;58.392;15.656;2022-10-03T08:12:56;12.00;99.90
35607;DHT22;21729;58.392;15.656;2022-10-03T08:15:43;12.00;99.90
35607;DHT22;21729;58.392;15.656;2022-10-03T08:18:42;12.00;99.90
35607;DHT22;21729;58.392;15.656;2022-10-03T08:21:17;12.10;99.90
35607;DHT22;21729;58.392;15.656;2022-10-03T08:24:08;12.20;99.90
35607;DHT22;21729;58.392;15.656;2022-10-03T08:26:53;12.20;99.90
35607;DHT22;21729;58.392;15.656;2022-10-03T08:29:40;12.10;99.90
35607;DHT22;21729;58.392;15.656;2022-10-03T08:32:49;12.10;99.90
35607;DHT22;21729;58.392;15.656;2022-10-03T08:38:35;12.00;99.90
35607;DHT22;21729;58.392;15.656;2022-10-03T08:41:36;12.20;99.90
35607;DHT22;21729;58.392;15.656;2022-10-03T08:44:37;12.20;99.90
35607;DHT22;21729;58.392;15.656;2022-10-03T08:50:40;13.50;57.20
35607;DHT22;21729;58.392;15.656;2022-10-03T08:53:31;13.50;1.00
35607;DHT22;21729;58.392;15.656;2022-10-03T08:56:05;13.70;1.00
35607;DHT22;21729;58.392;15.656;2022-10-03T09:05:24;13.50;1.00
35607;DHT22;21729;58.392;15.656;2022-10-03T09:14:34;13.30;1.00
35607;DHT22;21729;58.392;15.656;2022-10-03T09:17:37;13.50;1.00
35607;DHT22;21729;58.392;15.656;2022-10-03T09:23:34;13.20;99.90
35607;DHT22;21729;58.392;15.656;2022-10-03T09:26:24;13.30;1.00
35607;DHT22;21729;58.392;15.656;2022-10-03T09:29:19;13.20;1.00
35607;DHT22;21729;58.392;15.656;2022-10-03T09:35:34;13.10;1.00
35607;DHT22;21729;58.392;15.656;2022-10-03T09:51:05;16.70;99.90
35607;DHT22;21729;58.392;15.656;2022-10-03T10:09:36;13.90;99.90
35607;DHT22;21729;58.392;15.656;2022-10-03T10:12:34;13.70;99.90
35607;DHT22;21729;58.392;15.656;2022-10-03T10:15:28;13.70;99.90
35607;DHT22;21729;58.392;15.656;2022-10-03T10:18:31;14.10;99.90
35607;DHT22;21729;58.392;15.656;2022-10-03T10:21:29;14.70;99.90
35607;DHT22;21729;58.392;15.656;2022-10-03T10:24:12;14.80;54.10
35607;DHT22;21729;58.392;15.656;2022-10-03T10:33:15;14.20;99.90
35607;DHT22;21729;58.392;15.656;2022-10-03T10:39:17;13.40;99.90
35607;DHT22;21729;58.392;15.656;2022-10-03T10:45:22;13.60;99.90
35607;DHT22;21729;58.392;15.656;2022-10-03T10:51:49;13.60;99.90
35607;DHT22;21729;58.392;15.656;2022-10-03T10:54:51;13.80;99.90
35607;DHT22;21729;58.392;15.656;2022-10-03T10:57:56;13.90;62.30
35607;DHT22;21729;58.392;15.656;2022-10-03T11:00:43;13.90;99.90
35607;DHT22;21729;58.392;15.656;2022-10-03T11:10:08;13.90;86.80
35607;DHT22;21729;58.392;15.656;2022-10-03T11:16:36;14.10;99.90
35607;DHT22;21729;58.392;15.656;2022-10-03T11:19:56;14.00;16.90
35607;DHT22;21729;58.392;15.656;2022-10-03T11:22:56;14.20;99.90
35607;DHT22;21729;58.392;15.656;2022-10-03T11:29:04;14.40;5.30
35607;DHT22;21729;58.392;15.656;2022-10-03T11:32:23;14.10;1.00
35607;DHT22;21729;58.392;15.656;2022-10-03T11:35:32;14.00;80.70
35607;DHT22;21729;58.392;15.656;2022-10-03T11:38:07;14.10;40.60
35607;DHT22;21729;58.392;15.656;2022-10-03T11:40:46;14.20;26.90
35607;DHT22;21729;58.392;15.656;2022-10-03T11:43:58;14.20;1.00
35607;DHT22;21729;58.392;15.656;2022-10-03T11:47:01;14.30;1.00
35607;DHT22;21729;58.392;15.656;2022-10-03T11:52:37;14.00;1.00
35607;DHT22;21729;58.392;15.656;2022-10-03T11:55:23;14.10;43.30
35607;DHT22;21729;58.392;15.656;2022-10-03T11:58:02;14.20;74.40
35607;DHT22;21729;58.392;15.656;2022-10-03T12:00:38;14.00;1.00
35607;DHT22;21729;58.392;15.656;2022-10-03T12:03:11;13.70;7.10
35607;DHT22;21729;58.392;15.656;2022-10-03T12:05:54;13.70;99.90
35607;DHT22;21729;58.392;15.656;2022-10-03T12:08:54;13.70;99.90
35607;DHT22;21729;58.392;15.656;2022-10-03T12:11:27;14.00;99.90
35607;DHT22;21729;58.392;15.656;2022-10-03T12:14:09;13.90;32.70
35607;DHT22;21729;58.392;15.656;2022-10-03T12:16:53;13.70;99.90
35607;DHT22;21729;58.392;15.656;2022-10-03T12:19:28;13.80;99.90
35607;DHT22;21729;58.392;15.656;2022-10-03T12:22:06;14.00;99.90
35607;DHT22;21729;58.392;15.656;2022-10-03T12:24:39;14.40;75.10
35607;DHT22;21729;58.392;15.656;2022-10-03T12:27:16;14.30;21.10
35607;DHT22;21729;58.392;15.656;2022-10-03T12:29:53;14.20;34.40
35607;DHT22;21729;58.392;15.656;2022-10-03T12:32:31;14.20;1.00
35607;DHT22;21729;58.392;15.656;2022-10-03T12:35:09;13.90;75.90
35607;DHT22;21729;58.392;15.656;2022-10-03T12:38:01;14.10;39.70
35607;DHT22;21729;58.392;15.656;2022-10-03T12:40:38;13.80;99.90
35607;DHT22;21729;58.392;15.656;2022-10-03T12:43:17;13.80;52.60
35607;DHT22;21729;58.392;15.656;2022-10-03T12:45:52;13.80;99.90
35607;DHT22;21729;58.392;15.656;2022-10-03T12:48:39;13.60;28.10
35607;DHT22;21729;58.392;15.656;2022-10-03T12:51:26;13.60;14.70
35607;DHT22;21729;58.392;15.656;2022-10-03T12:54:07;13.40;53.90
35607;DHT22;21729;58.392;15.656;2022-10-03T12:56:46;13.50;19.10
35607;DHT22;21729;58.392;15.656;2022-10-03T12:59:28;13.60;22.00
35607;DHT22;21729;58.392;15.656;2022-10-03T13:02:17;13.70;40.20
35607;DHT22;21729;58.392;15.656;2022-10-03T13:05:05;13.60;1.00
35607;DHT22;21729;58.392;15.656;2022-10-03T13:07:45;13.60;17.40
35607;DHT22;21729;58.392;15.656;2022-10-03T13:10:24;13.60;33.20
35607;DHT22;21729;58.392;15.656;2022-10-03T13:13:06;13.70;78.50
35607;DHT22;21729;58.392;15.656;2022-10-03T13:18:42;13.80;31.90
35607;DHT22;21729;58.392;15.656;2022-10-03T13:21:16;13.60;26.30
35607;DHT22;21729;58.392;15.656;2022-10-03T13:23:48;13.60;99.90
35607;DHT22;21729;58.392;15.656;2022-10-03T13:26:21;13.70;71.10
35607;DHT22;21729;58.392;15.656;2022-10-03T13:31:56;13.60;34.30
35607;DHT22;21729;58.392;15.656;2022-10-03T13:34:29;13.50;98.20
35607;DHT22;21729;58.392;15.656;2022-10-03T13:37:03;13.40;99.90
35607;DHT22;21729;58.392;15.656;2022-10-03T13:39:39;13.60;99.90
35607;DHT22;21729;58.392;15.656;2022-10-03T13:42:13;13.70;87.40
35607;DHT22;21729;58.392;15.656;2022-10-03T13:44:47;13.60;24.10
35607;DHT22;21729;58.392;15.656;2022-10-03T13:47:34;13.50;49.70
35607;DHT22;21729;58.392;15.656;2022-10-03T13:50:04;13.40;31.50
35607;DHT22;21729;58.392;15.656;2022-10-03T13:52:38;13.50;38.10
35607;DHT22;21729;58.392;15.656;2022-10-03T13:55:17;13.40;93.80
35607;DHT22;21729;58.392;15.656;2022-10-03T13:57:58;13.40;99.90
35607;DHT22;21729;58.392;15.656;2022-10-03T14:00:32;13.20;99.90
35607;DHT22;21729;58.392;15.656;2022-10-03T14:03:12;13.10;99.90
35607;DHT22;21729;58.392;15.656;2022-10-03T14:06:04;13.00;99.90
35607;DHT22;21729;58.392;15.656;2022-10-03T14:09:09;12.90;99.90
35607;DHT22;21729;58.392;15.656;2022-10-03T14:11:47;12.80;99.90
35607;DHT22;21729;58.392;15.656;2022-10-03T14:14:33;12.80;99.90
35607;DHT22;21729;58.392;15.656;2022-10-03T14:17:09;12.70;99.90
35607;DHT22;21729;58.392;15.656;2022-10-03T14:19:49;12.60;99.90
35607;DHT22;21729;58.392;15.656;2022-10-03T14:22:30;12.50;99.90
35607;DHT22;21729;58.392;15.656;2022-10-03T14:25:11;12.40;99.90
35607;DHT22;21729;58.392;15.656;2022-10-03T14:27:51;12.50;99.90
35607;DHT22;21729;58.392;15.656;2022-10-03T14:30:20;12.60;99.90
35607;DHT22;21729;58.392;15.656;2022-10-03T14:33:01;12.70;99.90
35607;DHT22;21729;58.392;15.656;2022-10-03T14:35:40;12.80;99.90
35607;DHT22;21729;58.392;15.656;2022-10-03T14:38:18;12.70;99.90
35607;DHT22;21729;58.392;15.656;2022-10-03T14:40:51;12.70;99.90
35607;DHT22;21729;58.392;15.656;2022-10-03T14:43:32;12.60;99.90
35607;DHT22;21729;58.392;15.656;2022-10-03T14:46:02;12.50;99.90
35607;DHT22;21729;58.392;15.656;2022-10-03T14:48:35;12.40;99.90
35607;DHT22;21729;58.392;15.656;2022-10-03T14:51:12;12.30;99.90
35607;DHT22;21729;58.392;15.656;2022-10-03T14:53:46;12.30;99.90
35607;DHT22;21729;58.392;15.656;2022-10-03T14:56:18;12.40;99.90
35607;DHT22;21729;58.392;15.656;2022-10-03T14:58:49;12.40;99.90
35607;DHT22;21729;58.392;15.656;2022-10-03T15:01:18;12.40;99.90
35607;DHT22;21729;58.392;15.656;2022-10-03T15:03:54;12.40;99.90
35607;DHT22;21729;58.392;15.656;2022-10-03T15:06:49;12.50;99.90
35607;DHT22;21729;58.392;15.656;2022-10-03T15:09:25;12.50;99.90
35607;DHT22;21729;58.392;15.656;2022-10-03T15:12:02;12.50;99.90
35607;DHT22;21729;58.392;15.656;2022-10-03T15:14:33;12.40;99.90
35607;DHT22;21729;58.392;15.656;2022-10-03T15:17:04;12.40;99.90
35607;DHT22;21729;58.392;15.656;2022-10-03T15:19:36;12.30;99.90
35607;DHT22;21729;58.392;15.656;2022-10-03T15:22:21;12.20;99.90
35607;DHT22;21729;58.392;15.656;2022-10-03T15:24:50;12.10;1.00
35607;DHT22;21729;58.392;15.656;2022-10-03T15:27:21;12.00;1.00
35607;DHT22;21729;58.392;15.656;2022-10-03T15:29:52;12.00;1.00
35607;DHT22;21729;58.392;15.656;2022-10-03T15:32:23;11.80;1.00
35607;DHT22;21729;58.392;15.656;2022-10-03T15:34:55;11.80;1.00
35607;DHT22;21729;58.392;15.656;2022-10-03T15:37:26;11.80;1.00
35607;DHT22;21729;58.392;15.656;2022-10-03T15:39:59;11.80;1.00
35607;DHT22;21729;58.392;15.656;2022-10-03T15:42:29;11.70;1.00
35607;DHT22;21729;58.392;15.656;2022-10-03T15:45:00;11.70;1.00
35607;DHT22;21729;58.392;15.656;2022-10-03T15:47:30;11.60;1.00
35607;DHT22;21729;58.392;15.656;2022-10-03T15:50:03;11.50;4.40
35607;DHT22;21729;58.392;15.656;2022-10-03T15:52:36;11.40;25.90
35607;DHT22;21729;58.392;15.656;2022-10-03T15:55:11;11.40;24.60
35607;DHT22;21729;58.392;15.656;2022-10-03T15:57:44;11.30;25.10
35607;DHT22;21729;58.392;15.656;2022-10-03T16:00:20;11.40;24.00
35607;DHT22;21729;58.392;15.656;2022-10-03T16:02:53;11.30;9.50
35607;DHT22;21729;58.392;15.656;2022-10-03T16:05:22;11.30;11.80
35607;DHT22;21729;58.392;15.656;2022-10-03T16:07:57;11.30;10.40
35607;DHT22;21729;58.392;15.656;2022-10-03T16:10:27;11.20;1.00
35607;DHT22;21729;58.392;15.656;2022-10-03T16:12:58;11.10;1.00
35607;DHT22;21729;58.392;15.656;2022-10-03T16:15:35;11.10;1.00
35607;DHT22;21729;58.392;15.656;2022-10-03T16:18:10;11.10;1.00
35607;DHT22;21729;58.392;15.656;2022-10-03T16:20:57;11.10;1.00
35607;DHT22;21729;58.392;15.656;2022-10-03T16:23:29;11.00;1.00
35607;DHT22;21729;58.392;15.656;2022-10-03T16:26:03;10.80;1.00
35607;DHT22;21729;58.392;15.656;2022-10-03T16:28:33;10.70;1.00
35607;DHT22;21729;58.392;15.656;2022-10-03T16:31:10;10.60;1.00
35607;DHT22;21729;58.392;15.656;2022-10-03T16:33:41;10.60;1.00
35607;DHT22;21729;58.392;15.656;2022-10-03T16:36:16;10.60;1.00
35607;DHT22;21729;58.392;15.656;2022-10-03T16:38:51;10.50;1.00
35607;DHT22;21729;58.392;15.656;2022-10-03T16:41:21;10.50;1.00
35607;DHT22;21729;58.392;15.656;2022-10-03T16:43:54;10.40;1.00
35607;DHT22;21729;58.392;15.656;2022-10-03T16:46:23;10.30;1.00
35607;DHT22;21729;58.392;15.656;2022-10-03T16:48:53;10.20;1.00
35607;DHT22;21729;58.392;15.656;2022-10-03T16:51:41;10.30;1.00
35607;DHT22;21729;58.392;15.656;2022-10-03T16:54:12;10.10;8.20
35607;DHT22;21729;58.392;15.656;2022-10-03T16:56:43;10.00;31.70
35607;DHT22;21729;58.392;15.656;2022-10-03T16:59:13;9.90;90.00
35607;DHT22;21729;58.392;15.656;2022-10-03T17:01:45;10.00;65.70
35607;DHT22;21729;58.392;15.656;2022-10-03T17:04:19;9.90;74.30
35607;DHT22;21729;58.392;15.656;2022-10-03T17:06:48;9.80;99.70
35607;DHT22;21729;58.392;15.656;2022-10-03T17:09:24;9.80;99.90
35607;DHT22;21729;58.392;15.656;2022-10-03T17:11:54;9.80;99.90
35607;DHT22;21729;58.392;15.656;2022-10-03T17:14:23;9.70;99.90
35607;DHT22;21729;58.392;15.656;2022-10-03T17:16:56;9.60;99.90
35607;DHT22;21729;58.392;15.656;2022-10-03T17:19:31;9.50;99.90
35607;DHT22;21729;58.392;15.656;2022-10-03T17:22:05;9.50;99.90
35607;DHT22;21729;58.392;15.656;2022-10-03T17:24:44;9.40;99.90
35607;DHT22;21729;58.392;15.656;2022-10-03T17:27:24;9.30;99.90
35607;DHT22;21729;58.392;15.656;2022-10-03T17:29:57;9.30;99.90
35607;DHT22;21729;58.392;15.656;2022-10-03T17:32:32;9.20;99.90
35607;DHT22;21729;58.392;15.656;2022-10-03T17:35:09;9.20;99.90
35607;DHT22;21729;58.392;15.656;2022-10-03T17:37:55;9.10;99.90
35607;DHT22;21729;58.392;15.656;2022-10-03T17:40:44;9.10;99.90
35607;DHT22;21729;58.392;15.656;2022-10-03T17:43:21;9.00;99.90
35607;DHT22;21729;58.392;15.656;2022-10-03T17:45:57;8.90;99.90
35607;DHT22;21729;58.392;15.656;2022-10-03T17:48:34;8.80;99.90
35607;DHT22;21729;58.392;15.656;2022-10-03T17:54:02;8.70;99.90
35607;DHT22;21729;58.392;15.656;2022-10-03T17:56:33;8.70;99.90
35607;DHT22;21729;58.392;15.656;2022-10-03T17:59:04;8.60;99.90
35607;DHT22;21729;58.392;15.656;2022-10-03T18:01:37;8.70;99.90
35607;DHT22;21729;58.392;15.656;2022-10-03T18:04:13;8.70;99.90
35607;DHT22;21729;58.392;15.656;2022-10-03T18:06:46;8.60;99.90
35607;DHT22;21729;58.392;15.656;2022-10-03T18:09:27;8.60;99.90
35607;DHT22;21729;58.392;15.656;2022-10-03T18:12:03;8.50;99.90
35607;DHT22;21729;58.392;15.656;2022-10-03T18:14:43;8.30;99.90
35607;DHT22;21729;58.392;15.656;2022-10-03T18:17:19;8.30;99.90
35607;DHT22;21729;58.392;15.656;2022-10-03T18:19:58;8.30;99.90
35607;DHT22;21729;58.392;15.656;2022-10-03T18:22:33;8.30;99.90
35607;DHT22;21729;58.392;15.656;2022-10-03T18:25:11;8.20;99.90
35607;DHT22;21729;58.392;15.656;2022-10-03T18:28:11;8.20;99.90
35607;DHT22;21729;58.392;15.656;2022-10-03T18:30:44;8.20;99.90
35607;DHT22;21729;58.392;15.656;2022-10-03T18:33:14;7.90;99.90
35607;DHT22;21729;58.392;15.656;2022-10-03T18:35:44;8.10;99.90
35607;DHT22;21729;58.392;15.656;2022-10-03T18:38:16;8.10;99.90
35607;DHT22;21729;58.392;15.656;2022-10-03T18:40:48;8.00;99.90
35607;DHT22;21729;58.392;15.656;2022-10-03T18:43:35;8.00;99.90
35607;DHT22;21729;58.392;15.656;2022-10-03T18:46:13;8.00;99.90
35607;DHT22;21729;58.392;15.656;2022-10-03T18:48:47;7.90;99.90
35607;DHT22;21729;58.392;15.656;2022-10-03T18:51:23;7.90;99.90
35607;DHT22;21729;58.392;15.656;2022-10-03T18:53:57;7.90;99.90
35607;DHT22;21729;58.392;15.656;2022-10-03T18:56:26;7.80;99.90
35607;DHT22;21729;58.392;15.656;2022-10-03T18:59:07;7.80;99.90
35607;DHT22;21729;58.392;15.656;2022-10-03T19:01:43;7.80;99.90
35607;DHT22;21729;58.392;15.656;2022-10-03T19:04:19;7.80;1.00
35607;DHT22;21729;58.392;15.656;2022-10-03T19:06:50;7.80;1.00
35607;DHT22;21729;58.392;15.656;2022-10-03T19:09:21;7.80;1.00
35607;DHT22;21729;58.392;15.656;2022-10-03T19:11:53;7.80;1.00
35607;DHT22;21729;58.392;15.656;2022-10-03T19:14:29;7.80;1.00
35607;DHT22;21729;58.392;15.656;2022-10-03T19:17:20;7.80;1.00
35607;DHT22;21729;58.392;15.656;2022-10-03T19:19:52;7.80;1.00
35607;DHT22;21729;58.392;15.656;2022-10-03T19:22:25;7.80;1.00
35607;DHT22;21729;58.392;15.656;2022-10-03T19:24:53;7.70;1.00
35607;DHT22;21729;58.392;15.656;2022-10-03T19:27:38;7.70;1.00
35607;DHT22;21729;58.392;15.656;2022-10-03T19:30:08;7.70;1.00
35607;DHT22;21729;58.392;15.656;2022-10-03T19:32:48;7.50;1.00
35607;DHT22;21729;58.392;15.656;2022-10-03T19:35:17;7.60;1.00
35607;DHT22;21729;58.392;15.656;2022-10-03T19:37:48;7.60;1.00
35607;DHT22;21729;58.392;15.656;2022-10-03T19:40:38;7.50;1.00
35607;DHT22;21729;58.392;15.656;2022-10-03T19:43:33;7.50;1.00
35607;DHT22;21729;58.392;15.656;2022-10-03T19:46:10;7.50;1.00
35607;DHT22;21729;58.392;15.656;2022-10-03T19:48:45;7.50;1.00
35607;DHT22;21729;58.392;15.656;2022-10-03T19:51:15;7.50;1.00
35607;DHT22;21729;58.392;15.656;2022-10-03T19:53:43;7.50;1.00
35607;DHT22;21729;58.392;15.656;2022-10-03T19:56:14;7.50;1.00
35607;DHT22;21729;58.392;15.656;2022-10-03T19:58:44;7.60;1.00
35607;DHT22;21729;58.392;15.656;2022-10-03T20:01:13;7.60;1.00